Tamassee, South Carolina
Current Conditions -  °F | °C
As of 10:54 PM on Saturday 20 Dec 2014 (Local Time) from KCEU Reporting Station
Haze Haze  
Wind Chill: 45°   Ceiling: 700
Heat Index: 45°   Visibility: 6mi
Dew Point: 40°   Wind: 3mph
Humidity: 82%   Direction: 70°ENE
Pressure: 30.24"   Gusts: NA
Location:  34.88°N, 83.02°W
Report Text: KCEU 210354Z AUTO 07003KT 6SM HZ OVC007 07/04 A3024 RMK AO2 SLP242 T00720044
Loading
Personal Weather Stations






























Interactive Weather Map New forecast layout! Learn more

10-Day Weather Forecast

Advertisements
Track Severe Weather on mobile